createdAt,value
2019-02-16T00:00:37.785Z,2.67
2019-02-16T00:03:42.232Z,2.89
2019-02-16T00:06:46.675Z,2.71
2019-02-16T00:09:51.478Z,2.88
2019-02-16T00:12:55.925Z,2.66
2019-02-16T00:16:00.362Z,2.55
2019-02-16T00:19:04.817Z,2.54
2019-02-16T00:22:09.569Z,2.42
2019-02-16T00:25:14.085Z,2.25
2019-02-16T00:28:18.586Z,2.19
2019-02-16T00:31:23.019Z,2.08
2019-02-16T00:34:27.477Z,1.92
2019-02-16T00:37:32.196Z,1.88
2019-02-16T00:40:36.621Z,1.83
2019-02-16T00:43:41.072Z,1.76
2019-02-16T00:46:45.506Z,1.73
2019-02-16T00:49:49.963Z,1.72
2019-02-16T00:52:54.719Z,1.73
2019-02-16T00:55:59.445Z,1.67
2019-02-16T00:59:04.195Z,1.66
2019-02-16T01:02:08.910Z,1.66
2019-02-16T01:05:13.352Z,1.69
2019-02-16T01:08:17.800Z,1.65
2019-02-16T01:11:22.489Z,1.64
2019-02-16T01:14:27.223Z,1.73
2019-02-16T01:17:31.662Z,1.73
2019-02-16T01:20:36.373Z,1.69
2019-02-16T01:23:40.836Z,1.68
2019-02-16T01:26:45.242Z,1.67
2019-02-16T01:29:49.687Z,1.77
2019-02-16T01:32:54.377Z,1.76
2019-02-16T01:35:59.108Z,1.80
2019-02-16T01:39:04.345Z,1.86
2019-02-16T01:42:09.081Z,2.08
2019-02-16T01:45:13.517Z,2.12
2019-02-16T01:48:17.967Z,2.12
2019-02-16T01:51:31.458Z,2.03
2019-02-16T01:54:29.126Z,1.84
2019-02-16T01:57:33.559Z,1.84
2019-02-16T02:00:37.997Z,1.78
2019-02-16T02:03:42.439Z,1.71
2019-02-16T02:06:47.132Z,1.66
2019-02-16T02:09:51.881Z,1.74
2019-02-16T02:12:56.597Z,1.63
2019-02-16T02:16:01.323Z,1.64
2019-02-16T02:19:05.764Z,1.59
2019-02-16T02:22:10.191Z,1.66
2019-02-16T02:25:14.642Z,1.62
2019-02-16T02:28:19.081Z,1.58
2019-02-16T02:31:23.526Z,1.48
2019-02-16T02:34:28.200Z,1.37
2019-02-16T02:37:33.049Z,1.28
2019-02-16T02:40:37.466Z,1.31
2019-02-16T02:43:42.159Z,1.23
2019-02-16T02:46:46.588Z,1.17
2019-02-16T02:49:51.031Z,1.28
2019-02-16T02:52:56.694Z,1.36
2019-02-16T02:56:01.258Z,1.41
2019-02-16T02:59:06.020Z,1.40
2019-02-16T03:02:10.748Z,1.32
2019-02-16T03:05:15.185Z,1.47
2019-02-16T03:08:19.621Z,1.32
2019-02-16T03:11:24.058Z,1.39
2019-02-16T03:14:28.749Z,1.45
2019-02-16T03:17:33.201Z,1.42
2019-02-16T03:20:37.650Z,1.30
2019-02-16T03:23:42.139Z,1.27
2019-02-16T03:27:09.795Z,1.17
2019-02-16T03:30:31.109Z,1.00
2019-02-16T03:33:43.009Z,0.95
2019-02-16T03:37:03.011Z,0.89
2019-02-16T03:40:10.913Z,0.85
2019-02-16T03:43:15.642Z,0.97
2019-02-16T03:46:20.071Z,1.01
2019-02-16T03:49:24.788Z,1.00
2019-02-16T03:52:29.224Z,1.01
2019-02-16T03:55:33.670Z,0.82
2019-02-16T03:58:38.367Z,0.76
2019-02-16T04:01:42.817Z,0.82
2019-02-16T04:04:47.528Z,0.79
2019-02-16T04:07:51.953Z,1.35
2019-02-16T04:10:56.390Z,1.28
2019-02-16T04:14:00.830Z,1.26
2019-02-16T04:17:05.270Z,1.17
2019-02-16T04:20:10.042Z,1.06
2019-02-16T04:23:14.475Z,0.89
2019-02-16T04:26:18.914Z,0.85
2019-02-16T04:29:23.620Z,0.90
2019-02-16T04:32:28.064Z,1.19
2019-02-16T04:35:32.508Z,0.99
2019-02-16T04:38:37.201Z,1.07
2019-02-16T04:41:41.634Z,0.90
2019-02-16T04:44:46.356Z,1.00
2019-02-16T04:47:50.782Z,0.89
2019-02-16T04:50:55.516Z,0.89
2019-02-16T04:54:00.243Z,0.76
2019-02-16T04:57:04.673Z,0.75
2019-02-16T05:00:10.345Z,0.66
2019-02-16T05:03:14.769Z,0.49
2019-02-16T05:06:19.213Z,0.57
2019-02-16T05:09:23.643Z,0.49
2019-02-16T05:12:28.420Z,0.44
2019-02-16T05:15:32.860Z,0.29
2019-02-16T05:18:37.289Z,0.22
2019-02-16T05:21:41.726Z,0.32
2019-02-16T05:24:46.424Z,0.38
2019-02-16T05:27:50.855Z,0.55
2019-02-16T05:30:55.579Z,0.36
2019-02-16T05:34:00.004Z,0.36
2019-02-16T05:37:04.771Z,0.32
2019-02-16T05:40:09.843Z,0.38
2019-02-16T05:43:14.276Z,0.41
2019-02-16T05:46:19.023Z,0.36
2019-02-16T05:49:23.760Z,0.38
2019-02-16T05:52:28.198Z,0.33
2019-02-16T05:55:32.649Z,0.39
2019-02-16T05:58:37.386Z,0.32
2019-02-16T06:01:41.767Z,0.37
2019-02-16T06:04:46.484Z,0.39
2019-02-16T06:07:50.919Z,0.42
2019-02-16T06:10:55.658Z,0.30
2019-02-16T06:14:00.074Z,0.24
2019-02-16T06:17:04.508Z,0.22
2019-02-16T06:20:09.970Z,0.22
2019-02-16T06:23:14.674Z,0.28
2019-02-16T06:26:19.399Z,0.19
2019-02-16T06:29:23.836Z,0.31
2019-02-16T06:32:28.269Z,0.34
2019-02-16T06:35:34.718Z,0.42
2019-02-16T06:38:39.454Z,0.35
2019-02-16T06:41:43.890Z,0.44
2019-02-16T06:44:48.604Z,0.47
2019-02-16T06:47:53.050Z,0.55
2019-02-16T06:50:57.884Z,1.13
2019-02-16T06:54:02.307Z,1.86
2019-02-16T06:57:14.595Z,2.16
2019-02-16T07:00:20.718Z,2.07
2019-02-16T07:03:25.109Z,1.70
2019-02-16T07:06:29.548Z,1.71
2019-02-16T07:09:34.238Z,1.60
2019-02-16T07:12:38.959Z,1.45
2019-02-16T07:15:45.036Z,1.45
2019-02-16T07:18:56.922Z,1.47
2019-02-16T07:22:01.375Z,1.48
2019-02-16T07:25:08.158Z,1.56
2019-02-16T07:28:12.598Z,1.58
2019-02-16T07:31:17.393Z,1.66
2019-02-16T07:34:21.831Z,1.78
2019-02-16T07:37:26.290Z,1.89
2019-02-16T07:40:30.959Z,1.96
2019-02-16T07:43:45.514Z,2.22
2019-02-16T07:46:51.591Z,2.44
2019-02-16T07:49:57.656Z,2.64
2019-02-16T07:53:19.838Z,2.75
2019-02-16T07:56:25.905Z,2.86
2019-02-16T07:59:34.671Z,2.82
2019-02-16T08:02:43.503Z,2.87
2019-02-16T08:05:49.572Z,2.90
2019-02-16T08:08:55.883Z,3.10
2019-02-16T08:12:02.195Z,3.31
2019-02-16T08:15:21.489Z,3.44
2019-02-16T08:18:43.915Z,3.63
2019-02-16T08:21:50.299Z,3.85
2019-02-16T08:25:05.679Z,4.05
2019-02-16T08:28:14.494Z,4.26
2019-02-16T08:31:20.558Z,4.39
2019-02-16T08:34:26.920Z,4.51
2019-02-16T08:37:41.995Z,4.58
2019-02-16T08:40:48.371Z,4.72
2019-02-16T08:43:54.743Z,4.90
2019-02-16T08:47:02.124Z,5.02
2019-02-16T08:50:13.032Z,5.16
2019-02-16T08:53:32.890Z,5.30
2019-02-16T08:56:54.976Z,5.45
2019-02-16T09:00:08.351Z,5.66
2019-02-16T09:03:24.970Z,5.78
2019-02-16T09:06:31.057Z,6.00
2019-02-16T09:09:43.154Z,6.10
2019-02-16T09:12:54.879Z,6.29
2019-02-16T09:16:04.078Z,6.36
2019-02-16T09:19:13.170Z,6.39
2019-02-16T09:22:21.892Z,6.51
2019-02-16T09:25:43.235Z,6.66
2019-02-16T09:28:52.091Z,6.74
2019-02-16T09:32:03.892Z,6.96
2019-02-16T09:35:13.433Z,7.09
2019-02-16T09:38:22.233Z,7.33
2019-02-16T09:41:33.967Z,7.49
2019-02-16T09:44:40.072Z,7.61
2019-02-16T09:47:49.348Z,7.74
2019-02-16T09:50:55.716Z,7.81
2019-02-16T09:54:13.856Z,9.02
2019-02-16T09:57:20.382Z,11.52
2019-02-16T10:00:42.052Z,13.36
2019-02-16T10:04:04.185Z,14.35
2019-02-16T10:07:10.303Z,15.25
2019-02-16T10:10:22.154Z,16.42
2019-02-16T10:13:28.291Z,16.17
2019-02-16T10:16:34.373Z,16.88
2019-02-16T10:19:38.594Z,17.60
2019-02-16T10:22:44.974Z,17.50
2019-02-16T10:25:51.448Z,17.90
2019-02-16T10:28:57.552Z,19.05
2019-02-16T10:32:04.010Z,19.07
2019-02-16T10:35:10.155Z,18.54
2019-02-16T10:38:18.789Z,17.91
2019-02-16T10:41:41.426Z,17.56
2019-02-16T10:44:47.504Z,16.58
2019-02-16T10:47:59.283Z,16.28
2019-02-16T10:51:21.564Z,16.88
2019-02-16T10:54:43.761Z,16.36
2019-02-16T10:58:01.837Z,15.99
2019-02-16T11:01:20.055Z,15.68
2019-02-16T11:04:38.676Z,15.09
2019-02-16T11:07:50.335Z,14.68
2019-02-16T11:11:12.942Z,15.28
2019-02-16T11:14:21.699Z,15.10
2019-02-16T11:17:36.839Z,15.49
2019-02-16T11:20:49.176Z,15.94
2019-02-16T11:24:02.543Z,16.03
2019-02-16T11:27:06.800Z,16.13
2019-02-16T11:30:15.942Z,16.08
2019-02-16T11:33:27.519Z,15.97
2019-02-16T11:36:49.619Z,16.09
2019-02-16T11:39:58.228Z,16.30
2019-02-16T11:43:19.374Z,16.61
2019-02-16T11:46:28.374Z,16.63
2019-02-16T11:49:34.817Z,16.60
2019-02-16T11:52:56.731Z,16.75
2019-02-16T11:56:03.402Z,16.74
2019-02-16T11:59:10.610Z,16.54
2019-02-16T12:02:22.698Z,16.70
2019-02-16T12:05:29.172Z,16.88
2019-02-16T12:08:33.420Z,17.13
2019-02-16T12:11:39.572Z,17.33
2019-02-16T12:14:48.364Z,17.50
2019-02-16T12:17:57.179Z,17.44
2019-02-16T12:21:05.755Z,17.56
2019-02-16T12:24:11.915Z,17.66
2019-02-16T12:27:33.823Z,17.86
2019-02-16T12:30:57.960Z,17.90
2019-02-16T12:34:16.256Z,18.66
2019-02-16T12:37:22.338Z,18.71
2019-02-16T12:40:28.694Z,18.70
2019-02-16T12:43:50.957Z,18.73
2019-02-16T12:47:00.958Z,18.65
2019-02-16T12:50:20.239Z,18.79
2019-02-16T12:53:29.708Z,19.10
2019-02-16T12:56:38.844Z,19.32
2019-02-16T12:59:45.841Z,19.36
2019-02-16T13:03:01.902Z,19.16
2019-02-16T13:06:23.819Z,19.34
2019-02-16T13:09:32.885Z,19.50
2019-02-16T13:12:48.181Z,19.93
2019-02-16T13:16:00.460Z,20.17
2019-02-16T13:19:06.557Z,19.95
2019-02-16T13:22:15.433Z,20.47
2019-02-16T13:25:24.454Z,21.87
2019-02-16T13:28:35.393Z,23.49
2019-02-16T13:31:56.201Z,25.51
2019-02-16T13:35:08.111Z,25.47
2019-02-16T13:38:17.356Z,26.02
2019-02-16T13:41:38.546Z,25.68
2019-02-16T13:44:50.644Z,25.13
2019-02-16T13:47:59.431Z,25.20
2019-02-16T13:51:11.325Z,25.92
2019-02-16T13:54:17.447Z,25.63
2019-02-16T13:57:39.302Z,24.79
2019-02-16T14:00:51.012Z,24.73
2019-02-16T14:04:10.175Z,25.33
2019-02-16T14:07:16.909Z,25.33
2019-02-16T14:10:23.047Z,26.20
2019-02-16T14:13:47.054Z,25.16
2019-02-16T14:17:01.641Z,25.02
2019-02-16T14:20:08.444Z,24.07
2019-02-16T14:23:12.878Z,23.37
2019-02-16T14:26:17.777Z,23.99
2019-02-16T14:29:22.260Z,23.53
2019-02-16T14:32:27.011Z,23.66
2019-02-16T14:35:31.539Z,22.53
2019-02-16T14:38:37.673Z,21.17
2019-02-16T14:41:42.527Z,21.05
2019-02-16T14:44:47.028Z,21.58
2019-02-16T14:47:51.549Z,21.82
2019-02-16T14:50:56.021Z,21.16
2019-02-16T14:54:00.534Z,20.43
2019-02-16T14:57:05.013Z,19.20
2019-02-16T15:00:12.929Z,18.56
2019-02-16T15:03:17.432Z,17.99
2019-02-16T15:06:22.216Z,17.66
2019-02-16T15:09:26.698Z,17.37
2019-02-16T15:12:31.154Z,17.31
2019-02-16T15:15:35.676Z,17.03
2019-02-16T15:18:40.132Z,16.69
2019-02-16T15:21:44.670Z,16.48
2019-02-16T15:24:49.183Z,16.21
2019-02-16T15:27:55.340Z,16.04
2019-02-16T15:30:59.811Z,15.97
2019-02-16T15:34:05.869Z,15.82
2019-02-16T15:37:10.356Z,15.76
2019-02-16T15:40:15.174Z,15.69
2019-02-16T15:43:21.455Z,15.61
2019-02-16T15:46:25.966Z,15.43
2019-02-16T15:49:30.481Z,15.31
2019-02-16T15:52:35.298Z,15.23
2019-02-16T15:55:41.299Z,14.97
2019-02-16T15:58:46.451Z,14.70
2019-02-16T16:01:51.791Z,14.37
2019-02-16T16:04:56.282Z,14.13
2019-02-16T16:08:20.743Z,13.83
2019-02-16T16:11:42.487Z,13.64
2019-02-16T16:14:48.631Z,13.51
2019-02-16T16:18:06.619Z,13.37
2019-02-16T16:21:10.941Z,13.26
2019-02-16T16:24:25.934Z,13.14
2019-02-16T16:27:32.267Z,12.93
2019-02-16T16:30:53.714Z,12.72
2019-02-16T16:34:03.063Z,12.54
2019-02-16T16:37:25.727Z,12.46
2019-02-16T16:40:40.780Z,12.33
2019-02-16T16:44:02.257Z,12.32
2019-02-16T16:47:21.694Z,12.01
2019-02-16T16:50:40.730Z,11.74
2019-02-16T16:53:58.592Z,11.48
2019-02-16T16:57:05.116Z,11.37
2019-02-16T17:00:27.608Z,11.27
2019-02-16T17:03:37.672Z,11.06
2019-02-16T17:06:44.568Z,10.89
2019-02-16T17:10:07.400Z,10.70
2019-02-16T17:13:16.540Z,10.54
2019-02-16T17:16:25.214Z,10.48
2019-02-16T17:19:31.566Z,10.31
2019-02-16T17:22:37.731Z,10.34
2019-02-16T17:25:49.505Z,10.09
2019-02-16T17:28:55.616Z,9.97
2019-02-16T17:32:05.737Z,9.76
2019-02-16T17:35:11.832Z,9.80
2019-02-16T17:38:19.188Z,9.75
2019-02-16T17:41:35.179Z,9.78
2019-02-16T17:44:44.287Z,9.68
2019-02-16T17:47:48.515Z,9.30
2019-02-16T17:51:00.352Z,9.14
2019-02-16T17:54:24.351Z,8.87
2019-02-16T17:57:32.848Z,8.68
2019-02-16T18:00:41.693Z,8.49
2019-02-16T18:03:48.646Z,8.41
2019-02-16T18:07:11.330Z,8.22
2019-02-16T18:10:17.415Z,8.14
2019-02-16T18:13:39.553Z,8.04
2019-02-16T18:16:45.943Z,8.02
2019-02-16T18:19:52.078Z,7.88
2019-02-16T18:23:04.158Z,7.77
2019-02-16T18:26:10.258Z,7.86
2019-02-16T18:29:16.361Z,7.98
2019-02-16T18:32:20.576Z,8.18
2019-02-16T18:35:38.582Z,8.15
2019-02-16T18:38:44.662Z,8.20
2019-02-16T18:41:53.911Z,8.10
2019-02-16T18:45:03.054Z,7.91
2019-02-16T18:48:25.253Z,7.66
2019-02-16T18:51:43.457Z,7.57
2019-02-16T18:55:10.627Z,7.49
2019-02-16T18:58:09.096Z,7.26
2019-02-16T19:01:15.190Z,7.00
2019-02-16T19:04:27.540Z,6.85
2019-02-16T19:07:39.744Z,6.72
2019-02-16T19:10:55.391Z,6.60
2019-02-16T19:14:01.523Z,6.59
2019-02-16T19:17:07.615Z,6.56
2019-02-16T19:20:17.496Z,6.43
2019-02-16T19:23:23.862Z,6.38
2019-02-16T19:26:33.200Z,6.43
2019-02-16T19:29:55.955Z,6.34
2019-02-16T19:33:08.060Z,6.22
2019-02-16T19:36:16.878Z,6.15
2019-02-16T19:39:23.205Z,6.07
2019-02-16T19:42:35.986Z,6.22
2019-02-16T19:45:48.196Z,6.07
2019-02-16T19:48:52.713Z,5.97
2019-02-16T19:51:59.068Z,5.86
2019-02-16T19:55:21.104Z,5.80
2019-02-16T19:58:42.464Z,5.71
2019-02-16T20:01:47.006Z,5.74
2019-02-16T20:05:09.601Z,5.67
2019-02-16T20:08:24.868Z,5.55
2019-02-16T20:11:39.791Z,5.41
2019-02-16T20:14:54.818Z,5.31
2019-02-16T20:18:03.953Z,5.39
2019-02-16T20:21:13.089Z,5.48
2019-02-16T20:24:22.115Z,5.49
2019-02-16T20:27:37.089Z,5.44
2019-02-16T20:30:36.597Z,5.33
2019-02-16T20:33:48.416Z,5.38
2019-02-16T20:37:12.777Z,5.31
2019-02-16T20:40:31.546Z,5.22
2019-02-16T20:43:52.633Z,5.16
2019-02-16T20:47:04.678Z,4.97
2019-02-16T20:50:20.325Z,4.88
2019-02-16T20:53:26.403Z,4.97
2019-02-16T20:56:35.148Z,5.02
2019-02-16T20:59:43.889Z,5.06
2019-02-16T21:02:55.753Z,4.83
2019-02-16T21:06:01.797Z,4.59
2019-02-16T21:09:24.180Z,4.48
2019-02-16T21:12:32.973Z,4.47
2019-02-16T21:15:45.098Z,4.37
2019-02-16T21:18:51.477Z,4.51
2019-02-16T21:22:00.288Z,4.34
2019-02-16T21:25:07.212Z,4.27
2019-02-16T21:28:13.295Z,4.17
2019-02-16T21:31:28.524Z,4.00
2019-02-16T21:34:43.584Z,4.00
2019-02-16T21:37:49.674Z,4.10
2019-02-16T21:40:58.163Z,4.15
2019-02-16T21:44:04.540Z,4.16
2019-02-16T21:47:13.022Z,4.11
2019-02-16T21:50:19.104Z,4.13
2019-02-16T21:53:30.631Z,4.06
2019-02-16T21:56:35.133Z,3.93
2019-02-16T21:59:42.117Z,3.85
2019-02-16T22:03:01.591Z,3.77
2019-02-16T22:06:23.985Z,3.81
2019-02-16T22:09:49.252Z,3.69
2019-02-16T22:13:08.854Z,3.86
2019-02-16T22:16:13.560Z,3.85
2019-02-16T22:19:18.292Z,3.71
2019-02-16T22:22:22.729Z,3.66
2019-02-16T22:25:27.165Z,3.57
2019-02-16T22:28:31.802Z,3.46
2019-02-16T22:31:36.232Z,3.52
2019-02-16T22:34:41.740Z,3.47
2019-02-16T22:37:46.206Z,3.33
2019-02-16T22:40:50.676Z,3.31
2019-02-16T22:43:55.126Z,3.29
2019-02-16T22:46:59.559Z,3.16
2019-02-16T22:50:04.740Z,3.18
2019-02-16T22:53:09.174Z,3.19
2019-02-16T22:56:13.619Z,3.21
2019-02-16T22:59:18.353Z,3.19
2019-02-16T23:02:23.087Z,3.12
2019-02-16T23:05:27.601Z,3.16
2019-02-16T23:08:32.340Z,3.14
2019-02-16T23:11:36.779Z,3.19
2019-02-16T23:14:41.288Z,3.18
2019-02-16T23:17:45.722Z,3.15
2019-02-16T23:20:50.332Z,3.14
2019-02-16T23:23:55.076Z,3.16
2019-02-16T23:26:59.872Z,3.08
2019-02-16T23:30:10.378Z,3.08
2019-02-16T23:33:15.107Z,3.07
2019-02-16T23:36:19.547Z,3.13
2019-02-16T23:39:24.363Z,2.91
2019-02-16T23:42:29.086Z,2.72
2019-02-16T23:45:33.532Z,2.71
2019-02-16T23:48:37.963Z,2.78
2019-02-16T23:51:42.667Z,2.72
2019-02-16T23:54:47.096Z,2.71
2019-02-16T23:57:51.827Z,2.71
